createdAt,value
2018-08-23T00:00:48.216Z,101517.17
2018-08-23T00:03:22.573Z,101511.02
2018-08-23T00:05:54.461Z,101508.70
2018-08-23T00:08:24.022Z,101513.72
2018-08-23T00:10:53.958Z,101508.32
2018-08-23T00:13:23.323Z,101500.30
2018-08-23T00:15:52.480Z,101497.67
2018-08-23T00:18:21.563Z,101500.00
2018-08-23T00:20:50.775Z,101499.81
2018-08-23T00:23:19.875Z,101498.58
2018-08-23T00:25:48.997Z,101492.69
2018-08-23T00:28:18.052Z,101497.30
2018-08-23T00:30:47.159Z,101499.14
2018-08-23T00:33:16.235Z,101494.98
2018-08-23T00:35:45.302Z,101489.12
2018-08-23T00:38:14.447Z,101488.72
2018-08-23T00:40:44.826Z,101487.48
2018-08-23T00:43:15.043Z,101481.67
2018-08-23T00:45:44.147Z,101480.80
2018-08-23T00:48:13.471Z,101476.67
2018-08-23T00:50:52.643Z,101474.91
2018-08-23T00:53:21.801Z,101469.52
2018-08-23T00:56:02.768Z,101474.70
2018-08-23T00:58:31.880Z,101469.22
2018-08-23T01:01:02.760Z,101464.20
2018-08-23T01:03:32.020Z,101471.44
2018-08-23T01:06:01.134Z,101471.92
2018-08-23T01:08:33.151Z,101468.06
2018-08-23T01:11:03.065Z,101464.39
2018-08-23T01:13:32.124Z,101459.10
2018-08-23T01:16:01.192Z,101459.55
2018-08-23T01:18:30.277Z,101456.48
2018-08-23T01:20:59.330Z,101454.16
2018-08-23T01:23:28.486Z,101454.76
2018-08-23T01:25:57.586Z,101453.30
2018-08-23T01:28:26.660Z,101454.16
2018-08-23T01:30:55.875Z,101451.08
2018-08-23T01:33:24.932Z,101443.74
2018-08-23T01:35:53.990Z,101451.08
2018-08-23T01:38:23.156Z,101446.36
2018-08-23T01:40:58.336Z,101455.21
2018-08-23T01:43:27.430Z,101452.92
2018-08-23T01:45:56.558Z,101448.67
2018-08-23T01:48:25.758Z,101442.78
2018-08-23T01:50:54.820Z,101437.02
2018-08-23T01:53:28.460Z,101434.30
2018-08-23T01:55:57.592Z,101440.06
2018-08-23T01:58:26.677Z,101437.86
2018-08-23T02:01:11.842Z,101430.24
2018-08-23T02:03:41.042Z,101429.11
2018-08-23T02:06:11.788Z,101435.86
2018-08-23T02:08:42.529Z,101428.33
2018-08-23T02:11:11.616Z,101431.11
2018-08-23T02:13:40.810Z,101429.75
2018-08-23T02:16:09.876Z,101420.47
2018-08-23T02:18:38.926Z,101430.26
2018-08-23T02:21:10.628Z,101425.83
2018-08-23T02:23:45.543Z,101424.20
2018-08-23T02:26:15.172Z,101420.23
2018-08-23T02:28:45.376Z,101421.88
2018-08-23T02:31:14.500Z,101417.38
2018-08-23T02:33:43.589Z,101420.53
2018-08-23T02:36:19.028Z,101411.98
2018-08-23T02:38:53.519Z,101411.00
2018-08-23T02:41:22.691Z,101407.33
2018-08-23T02:43:51.798Z,101411.38
2018-08-23T02:46:20.981Z,101409.00
2018-08-23T02:48:50.046Z,101404.25
2018-08-23T02:51:19.096Z,101405.03
2018-08-23T02:53:52.024Z,101405.41
2018-08-23T02:56:21.694Z,101404.55
2018-08-23T02:58:57.013Z,101402.82
2018-08-23T03:01:27.946Z,101399.63
2018-08-23T03:04:09.858Z,101395.17
2018-08-23T03:06:43.939Z,101394.72
2018-08-23T03:09:13.043Z,101395.02
2018-08-23T03:11:42.107Z,101395.87
2018-08-23T03:14:11.689Z,101387.29
2018-08-23T03:16:52.183Z,101388.56
2018-08-23T03:19:21.286Z,101386.34
2018-08-23T03:21:59.473Z,101374.77
2018-08-23T03:24:28.634Z,101374.36
2018-08-23T03:26:57.699Z,101367.71
2018-08-23T03:29:26.752Z,101364.03
2018-08-23T03:31:55.879Z,101365.39
2018-08-23T03:34:24.935Z,101366.08
2018-08-23T03:36:54.021Z,101362.90
2018-08-23T03:39:23.167Z,101363.95
2018-08-23T03:41:52.267Z,101365.48
2018-08-23T03:44:26.599Z,101359.63
2018-08-23T03:46:56.111Z,101362.41
2018-08-23T03:49:27.004Z,101353.33
2018-08-23T03:51:56.355Z,101354.23
2018-08-23T03:54:25.415Z,101350.55
2018-08-23T03:57:11.399Z,101348.14
2018-08-23T03:59:43.301Z,101347.48
2018-08-23T04:02:13.219Z,101343.89
2018-08-23T04:04:42.707Z,101336.84
2018-08-23T04:07:11.783Z,101340.44
2018-08-23T04:09:41.055Z,101338.41
2018-08-23T04:12:10.197Z,101333.69
2018-08-23T04:14:39.364Z,101335.90
2018-08-23T04:17:09.672Z,101339.47
2018-08-23T04:19:49.627Z,101335.22
2018-08-23T04:22:18.743Z,101335.63
2018-08-23T04:24:56.381Z,101335.63
2018-08-23T04:27:25.595Z,101337.75
2018-08-23T04:29:54.679Z,101335.33
2018-08-23T04:32:29.327Z,101339.38
2018-08-23T04:35:00.042Z,101338.48
2018-08-23T04:37:30.199Z,101337.54
2018-08-23T04:40:04.029Z,101338.81
2018-08-23T04:42:33.219Z,101338.41
2018-08-23T04:45:13.595Z,101340.24
2018-08-23T04:47:49.427Z,101341.96
2018-08-23T04:50:18.545Z,101343.80
2018-08-23T04:52:47.733Z,101334.76
2018-08-23T04:55:16.796Z,101332.52
2018-08-23T04:57:45.935Z,101333.49
2018-08-23T05:00:15.001Z,101334.44
2018-08-23T05:02:44.059Z,101331.73
2018-08-23T05:05:13.241Z,101327.69
2018-08-23T05:07:42.329Z,101330.22
2018-08-23T05:10:11.523Z,101329.73
2018-08-23T05:12:41.739Z,101325.10
2018-08-23T05:15:10.932Z,101321.05
2018-08-23T05:17:40.206Z,101320.84
2018-08-23T05:20:09.608Z,101321.53
2018-08-23T05:22:39.315Z,101324.41
2018-08-23T05:25:15.852Z,101320.36
2018-08-23T05:28:01.595Z,101326.94
2018-08-23T05:30:30.696Z,101323.55
2018-08-23T05:33:17.587Z,101324.05
2018-08-23T05:35:46.775Z,101325.19
2018-08-23T05:38:16.399Z,101324.16
2018-08-23T05:40:47.024Z,101323.67
2018-08-23T05:43:16.732Z,101320.98
2018-08-23T05:45:55.359Z,101316.84
2018-08-23T05:48:31.872Z,101312.88
2018-08-23T05:51:02.909Z,101315.58
2018-08-23T05:53:32.017Z,101315.21
2018-08-23T05:56:01.769Z,101310.38
2018-08-23T05:58:32.918Z,101311.65
2018-08-23T06:01:02.327Z,101299.05
2018-08-23T06:03:31.469Z,101296.39
2018-08-23T06:06:00.579Z,101299.38
2018-08-23T06:08:29.704Z,101305.96
2018-08-23T06:11:05.308Z,101304.90
2018-08-23T06:13:34.539Z,101301.80
2018-08-23T06:16:03.625Z,101305.19
2018-08-23T06:18:32.783Z,101311.94
2018-08-23T06:21:01.888Z,101312.02
2018-08-23T06:23:58.843Z,101312.30
2018-08-23T06:26:50.947Z,101303.83
2018-08-23T06:29:22.331Z,101314.80
2018-08-23T06:32:10.632Z,101310.30
2018-08-23T06:34:45.687Z,101309.11
2018-08-23T06:37:15.203Z,101313.86
2018-08-23T06:39:44.349Z,101309.23
2018-08-23T06:42:13.521Z,101310.67
2018-08-23T06:44:47.965Z,101305.27
2018-08-23T06:47:18.420Z,101305.77
2018-08-23T06:49:48.727Z,101300.73
2018-08-23T06:52:27.985Z,101297.38
2018-08-23T06:54:57.137Z,101288.20
2018-08-23T06:57:27.429Z,101296.77
2018-08-23T06:59:56.527Z,101293.03
2018-08-23T07:02:25.599Z,101296.31
2018-08-23T07:04:54.699Z,101289.93
2018-08-23T07:07:23.810Z,101291.08
2018-08-23T07:09:52.915Z,101289.36
2018-08-23T07:12:22.011Z,101294.19
2018-08-23T07:14:51.463Z,101297.83
2018-08-23T07:17:26.862Z,101298.03
2018-08-23T07:20:00.141Z,101300.64
2018-08-23T07:22:29.240Z,101303.14
2018-08-23T07:24:59.464Z,101310.75
2018-08-23T07:27:28.544Z,101305.52
2018-08-23T07:29:58.955Z,101305.92
2018-08-23T07:32:31.128Z,101299.05
2018-08-23T07:35:05.837Z,101301.30
2018-08-23T07:37:36.382Z,101293.66
2018-08-23T07:40:10.203Z,101299.87
2018-08-23T07:42:40.506Z,101297.45
2018-08-23T07:45:10.213Z,101292.62
2018-08-23T07:47:43.515Z,101297.66
2018-08-23T07:50:12.768Z,101289.36
2018-08-23T07:52:43.937Z,101291.36
2018-08-23T07:55:13.212Z,101285.67
2018-08-23T07:57:42.548Z,101288.38
2018-08-23T08:00:38.028Z,101283.75
2018-08-23T08:03:07.588Z,101289.52
2018-08-23T08:05:37.645Z,101288.38
2018-08-23T08:08:07.496Z,101297.05
2018-08-23T08:10:43.967Z,101297.16
2018-08-23T08:13:13.078Z,101298.11
2018-08-23T08:15:42.189Z,101298.40
2018-08-23T08:18:16.070Z,101296.76
2018-08-23T08:20:51.045Z,101296.77
2018-08-23T08:23:20.307Z,101298.31
2018-08-23T08:25:49.847Z,101294.84
2018-08-23T08:28:19.514Z,101297.63
2018-08-23T08:30:53.091Z,101293.77
2018-08-23T08:33:22.844Z,101298.02
2018-08-23T08:35:56.239Z,101301.28
2018-08-23T08:38:25.328Z,101301.28
2018-08-23T08:40:54.424Z,101297.80
2018-08-23T08:43:23.592Z,101299.37
2018-08-23T08:45:56.093Z,101299.82
2018-08-23T08:48:31.538Z,101294.12
2018-08-23T08:51:20.920Z,101297.39
2018-08-23T08:53:50.612Z,101297.09
2018-08-23T08:56:28.022Z,101297.21
2018-08-23T08:58:57.145Z,101297.30
2018-08-23T09:01:26.419Z,101297.03
2018-08-23T09:04:01.075Z,101307.42
2018-08-23T09:06:45.971Z,101302.79
2018-08-23T09:09:30.554Z,101298.17
2018-08-23T09:12:06.770Z,101293.16
2018-08-23T09:14:42.404Z,101293.90
2018-08-23T09:17:28.206Z,101291.39
2018-08-23T09:20:08.297Z,101294.00
2018-08-23T09:22:42.868Z,101294.59
2018-08-23T09:25:17.036Z,101295.73
2018-08-23T09:27:48.635Z,101298.64
2018-08-23T09:30:23.189Z,101295.17
2018-08-23T09:32:52.357Z,101298.86
2018-08-23T09:35:24.805Z,101296.17
2018-08-23T09:37:56.759Z,101284.87
2018-08-23T09:40:26.714Z,101286.14
2018-08-23T09:42:55.996Z,101286.22
2018-08-23T09:45:25.345Z,101289.42
2018-08-23T09:47:54.724Z,101280.76
2018-08-23T09:50:23.798Z,101284.52
2018-08-23T09:52:52.898Z,101274.70
2018-08-23T09:55:24.995Z,101270.33
2018-08-23T09:57:54.116Z,101276.34
2018-08-23T10:00:25.347Z,101267.05
2018-08-23T10:02:59.778Z,101272.08
2018-08-23T10:05:34.196Z,101271.96
2018-08-23T10:08:08.964Z,101267.45
2018-08-23T10:10:43.356Z,101269.27
2018-08-23T10:13:17.768Z,101270.16
2018-08-23T10:15:52.182Z,101263.69
2018-08-23T10:18:27.119Z,101255.38
2018-08-23T10:20:59.235Z,101267.45
2018-08-23T10:23:28.409Z,101258.28
2018-08-23T10:25:59.006Z,101257.31
2018-08-23T10:28:38.862Z,101267.45
2018-08-23T10:31:13.572Z,101258.22
2018-08-23T10:33:42.678Z,101257.16
2018-08-23T10:36:11.762Z,101262.64
2018-08-23T10:38:40.882Z,101260.44
2018-08-23T10:41:10.082Z,101260.23
2018-08-23T10:43:44.366Z,101265.34
2018-08-23T10:46:13.496Z,101263.70
2018-08-23T10:48:42.726Z,101261.00
2018-08-23T10:51:12.242Z,101256.30
2018-08-23T10:53:41.376Z,101256.30
2018-08-23T10:56:10.566Z,101251.55
2018-08-23T10:58:39.669Z,101252.25
2018-08-23T11:01:08.859Z,101249.14
2018-08-23T11:03:37.966Z,101250.98
2018-08-23T11:06:07.070Z,101255.32
2018-08-23T11:08:37.643Z,101246.73
2018-08-23T11:11:12.040Z,101247.22
2018-08-23T11:13:46.286Z,101244.31
2018-08-23T11:16:20.655Z,101239.70
2018-08-23T11:18:55.088Z,101239.61
2018-08-23T11:21:24.262Z,101234.41
2018-08-23T11:23:53.356Z,101243.95
2018-08-23T11:26:24.988Z,101235.73
2018-08-23T11:28:54.054Z,101241.50
2018-08-23T11:31:30.540Z,101236.02
2018-08-23T11:33:59.728Z,101241.62
2018-08-23T11:36:28.839Z,101235.94
2018-08-23T11:38:57.959Z,101234.75
2018-08-23T11:41:27.151Z,101236.34
2018-08-23T11:43:56.285Z,101238.55
2018-08-23T11:46:25.414Z,101236.50
2018-08-23T11:48:54.553Z,101230.25
2018-08-23T11:51:23.795Z,101230.73
2018-08-23T11:53:52.940Z,101230.53
2018-08-23T11:56:22.175Z,101227.66
2018-08-23T11:58:51.246Z,101229.58
2018-08-23T12:01:20.365Z,101223.11
2018-08-23T12:03:49.436Z,101227.63
2018-08-23T12:06:18.691Z,101226.10
2018-08-23T12:08:47.841Z,101223.48
2018-08-23T12:11:17.023Z,101212.88
2018-08-23T12:13:47.525Z,101215.86
2018-08-23T12:16:16.687Z,101221.64
2018-08-23T12:18:45.780Z,101225.61
2018-08-23T12:21:14.835Z,101220.59
2018-08-23T12:23:43.925Z,101215.10
2018-08-23T12:26:13.373Z,101223.28
2018-08-23T12:28:48.132Z,101221.35
2018-08-23T12:31:17.571Z,101218.16
2018-08-23T12:33:46.668Z,101220.69
2018-08-23T12:36:19.999Z,101216.35
2018-08-23T12:38:54.426Z,101213.66
2018-08-23T12:41:28.880Z,101217.60
2018-08-23T12:43:58.025Z,101207.86
2018-08-23T12:46:27.297Z,101200.62
2018-08-23T12:48:57.887Z,101203.02
2018-08-23T12:51:27.051Z,101204.59
2018-08-23T12:53:56.182Z,101195.99
2018-08-23T12:56:25.385Z,101191.37
2018-08-23T12:58:54.648Z,101198.89
2018-08-23T13:01:23.757Z,101193.20
2018-08-23T13:03:53.323Z,101191.37
2018-08-23T13:06:22.582Z,101197.91
2018-08-23T13:08:52.262Z,101193.86
2018-08-23T13:11:21.449Z,101192.70
2018-08-23T13:13:50.671Z,101192.00
2018-08-23T13:16:19.932Z,101189.49
2018-08-23T13:18:49.173Z,101181.58
2018-08-23T13:21:18.561Z,101184.38
2018-08-23T13:23:47.865Z,101173.28
2018-08-23T13:26:17.113Z,101173.91
2018-08-23T13:28:46.236Z,101176.89
2018-08-23T13:31:15.332Z,101173.73
2018-08-23T13:33:44.507Z,101167.62
2018-08-23T13:36:13.661Z,101164.71
2018-08-23T13:38:42.881Z,101172.94
2018-08-23T13:41:12.039Z,101172.72
2018-08-23T13:43:41.240Z,101171.74
2018-08-23T13:46:10.631Z,101179.45
2018-08-23T13:48:39.682Z,101170.86
2018-08-23T13:51:09.343Z,101172.48
2018-08-23T13:53:38.801Z,101171.13
2018-08-23T13:56:08.143Z,101168.49
2018-08-23T13:58:37.252Z,101168.77
2018-08-23T14:01:06.511Z,101164.71
2018-08-23T14:03:35.624Z,101159.13
2018-08-23T14:06:04.856Z,101152.55
2018-08-23T14:08:34.192Z,101149.16
2018-08-23T14:11:03.396Z,101147.97
2018-08-23T14:13:33.630Z,101146.73
2018-08-23T14:16:04.051Z,101138.19
2018-08-23T14:18:34.247Z,101141.44
2018-08-23T14:21:03.631Z,101133.64
2018-08-23T14:23:32.744Z,101129.77
2018-08-23T14:26:01.878Z,101134.19
2018-08-23T14:28:30.945Z,101125.88
2018-08-23T14:31:00.314Z,101128.27
2018-08-23T14:33:29.957Z,101122.86
2018-08-23T14:35:59.528Z,101121.70
2018-08-23T14:38:28.724Z,101121.60
2018-08-23T14:40:58.337Z,101106.50
2018-08-23T14:43:27.975Z,101100.33
2018-08-23T14:46:02.523Z,101108.34
2018-08-23T14:48:31.635Z,101104.30
2018-08-23T14:51:00.711Z,101107.27
2018-08-23T14:53:30.844Z,101108.25
2018-08-23T14:56:05.329Z,101098.88
2018-08-23T14:58:34.471Z,101104.02
2018-08-23T15:01:03.673Z,101105.38
2018-08-23T15:03:32.799Z,101098.98
2018-08-23T15:06:01.909Z,101095.31
2018-08-23T15:08:31.174Z,101093.38
2018-08-23T15:11:00.296Z,101087.34
2018-08-23T15:13:30.571Z,101085.44
2018-08-23T15:15:59.695Z,101083.89
2018-08-23T15:18:28.815Z,101074.02
2018-08-23T15:20:58.945Z,101075.05
2018-08-23T15:23:28.555Z,101066.61
2018-08-23T15:25:57.720Z,101066.31
2018-08-23T15:28:27.027Z,101049.94
2018-08-23T15:30:56.199Z,101065.31
2018-08-23T15:33:25.286Z,101061.42
2018-08-23T15:35:54.488Z,101065.61
2018-08-23T15:38:23.709Z,101071.32
2018-08-23T15:40:52.926Z,101072.54
2018-08-23T15:43:22.206Z,101065.91
2018-08-23T15:45:51.275Z,101074.91
2018-08-23T15:48:20.487Z,101062.63
2018-08-23T15:50:49.707Z,101064.95
2018-08-23T15:53:18.883Z,101069.17
2018-08-23T15:55:48.380Z,101067.22
2018-08-23T15:58:17.695Z,101067.58
2018-08-23T16:00:46.877Z,101063.42
2018-08-23T16:03:15.972Z,101066.98
2018-08-23T16:05:45.045Z,101069.20
2018-08-23T16:08:14.137Z,101067.84
2018-08-23T16:10:43.293Z,101062.43
2018-08-23T16:13:12.459Z,101062.53
2018-08-23T16:15:41.721Z,101057.48
2018-08-23T16:18:16.099Z,101061.55
2018-08-23T16:20:47.505Z,101057.92
2018-08-23T16:23:16.618Z,101063.23
2018-08-23T16:25:45.808Z,101059.27
2018-08-23T16:28:14.900Z,101057.30
2018-08-23T16:30:49.351Z,101047.43
2018-08-23T16:33:18.549Z,101045.11
2018-08-23T16:35:47.619Z,101038.34
2018-08-23T16:38:16.745Z,101037.59
2018-08-23T16:40:45.811Z,101037.59
2018-08-23T16:43:15.072Z,101035.25
2018-08-23T16:45:44.226Z,101039.44
2018-08-23T16:48:14.231Z,101029.22
2018-08-23T16:50:43.404Z,101034.98
2018-08-23T16:53:12.567Z,101034.98
2018-08-23T16:55:41.832Z,101033.14
2018-08-23T16:58:10.999Z,101034.13
2018-08-23T17:00:40.127Z,101031.95
2018-08-23T17:03:09.462Z,101035.07
2018-08-23T17:05:38.539Z,101029.16
2018-08-23T17:08:07.619Z,101031.88
2018-08-23T17:10:36.692Z,101026.82
2018-08-23T17:13:05.813Z,101023.52
2018-08-23T17:15:40.032Z,101019.61
2018-08-23T17:18:09.317Z,101016.05
2018-08-23T17:20:38.473Z,101012.95
2018-08-23T17:23:07.684Z,101014.56
2018-08-23T17:25:36.924Z,101015.16
2018-08-23T17:28:06.394Z,101022.68
2018-08-23T17:30:35.512Z,101017.87
2018-08-23T17:33:05.258Z,101019.12
2018-08-23T17:35:34.440Z,101012.71
2018-08-23T17:38:03.676Z,101009.64
2018-08-23T17:40:32.744Z,101007.09
2018-08-23T17:43:01.958Z,101012.50
2018-08-23T17:45:31.252Z,101012.25
2018-08-23T17:48:00.337Z,101004.48
2018-08-23T17:50:29.454Z,101003.73
2018-08-23T17:52:58.838Z,101000.17
2018-08-23T17:55:27.951Z,101010.00
2018-08-23T17:57:57.295Z,101026.14
2018-08-23T18:00:26.416Z,101021.46
2018-08-23T18:02:55.488Z,101017.50
2018-08-23T18:05:24.640Z,101027.08
2018-08-23T18:07:53.797Z,101030.88
2018-08-23T18:10:22.892Z,101032.60
2018-08-23T18:12:52.041Z,101027.55
2018-08-23T18:15:21.466Z,101027.03
2018-08-23T18:17:50.935Z,101028.45
2018-08-23T18:20:20.253Z,101027.00
2018-08-23T18:22:49.466Z,101026.61
2018-08-23T18:25:18.643Z,101026.50
2018-08-23T18:27:47.980Z,101018.62
2018-08-23T18:30:17.185Z,101027.94
2018-08-23T18:32:46.623Z,101032.72
2018-08-23T18:35:15.704Z,101038.69
2018-08-23T18:37:45.137Z,101030.67
2018-08-23T18:40:14.407Z,101031.27
2018-08-23T18:42:43.514Z,101037.08
2018-08-23T18:45:12.778Z,101035.66
2018-08-23T18:47:42.980Z,101041.33
2018-08-23T18:50:12.103Z,101042.42
2018-08-23T18:52:41.454Z,101048.82
2018-08-23T18:55:10.758Z,101058.88
2018-08-23T18:57:39.919Z,101056.17
2018-08-23T19:00:09.214Z,101061.32
2018-08-23T19:02:38.318Z,101062.91
2018-08-23T19:05:07.430Z,101069.66
2018-08-23T19:07:40.464Z,101077.25
2018-08-23T19:10:10.354Z,101067.02
2018-08-23T19:12:39.639Z,101072.75
2018-08-23T19:15:09.254Z,101071.58
2018-08-23T19:23:55.217Z,101085.02
2018-08-23T19:26:24.340Z,101090.11
2018-08-23T19:28:53.569Z,101098.17
2018-08-23T19:31:22.749Z,101095.38
2018-08-23T19:33:52.156Z,101094.75
2018-08-23T19:36:21.375Z,101097.31
2018-08-23T19:38:50.535Z,101101.69
2018-08-23T19:41:19.778Z,101085.70
2018-08-23T19:43:48.974Z,101088.39
2018-08-23T19:47:26.295Z,101078.53
2018-08-23T19:49:57.920Z,101073.89
2018-08-23T19:52:27.104Z,101071.28
2018-08-23T19:54:56.309Z,101068.77
2018-08-23T19:57:27.988Z,101074.97
2018-08-23T19:59:57.149Z,101086.64
2018-08-23T20:02:26.220Z,101086.83
2018-08-23T20:04:55.328Z,101087.81
2018-08-23T20:07:24.815Z,101095.65
2018-08-23T20:09:53.900Z,101097.34
2018-08-23T20:12:28.625Z,101105.24
2018-08-23T20:15:03.404Z,101111.87
2018-08-23T20:17:32.767Z,101119.18
2018-08-23T20:20:01.988Z,101113.50
2018-08-23T20:22:31.088Z,101118.29
2018-08-23T20:25:00.290Z,101112.15
2018-08-23T20:27:29.591Z,101109.27
2018-08-23T20:29:58.687Z,101114.45
2018-08-23T20:32:27.739Z,101105.05
2018-08-23T20:34:56.892Z,101104.86
2018-08-23T20:37:25.947Z,101099.62
2018-08-23T20:39:55.068Z,101111.68
2018-08-23T20:42:24.790Z,101114.59
2018-08-23T20:44:53.852Z,101119.44
2018-08-23T20:47:22.987Z,101112.28
2018-08-23T20:49:52.088Z,101120.69
2018-08-23T20:52:21.292Z,101113.48
2018-08-23T20:54:50.371Z,101121.67
2018-08-23T20:57:19.444Z,101115.13
2018-08-23T20:59:48.536Z,101117.14
2018-08-23T21:02:17.648Z,101110.80
2018-08-23T21:04:47.046Z,101121.19
2018-08-23T21:07:16.140Z,101122.09
2018-08-23T21:09:45.242Z,101112.41
2018-08-23T21:12:14.553Z,101111.15
2018-08-23T21:14:43.639Z,101104.70
2018-08-23T21:17:12.696Z,101114.14
2018-08-23T21:19:41.756Z,101113.98
2018-08-23T21:22:10.919Z,101119.77
2018-08-23T21:24:40.145Z,101126.14
2018-08-23T21:27:09.223Z,101121.72
2018-08-23T21:29:38.303Z,101123.94
2018-08-23T21:32:07.483Z,101122.79
2018-08-23T21:34:36.638Z,101117.48
2018-08-23T21:37:05.827Z,101118.83
2018-08-23T21:39:35.056Z,101114.98
2018-08-23T21:42:04.136Z,101118.55
2018-08-23T21:44:33.230Z,101121.33
2018-08-23T21:47:02.300Z,101112.17
2018-08-23T21:49:31.361Z,101107.84
2018-08-23T21:52:00.439Z,101109.31
2018-08-23T21:54:29.568Z,101115.28
2018-08-23T21:56:58.749Z,101109.03
2018-08-23T21:59:27.872Z,101105.47
2018-08-23T22:02:02.300Z,101107.39
2018-08-23T22:04:31.432Z,101100.73
2018-08-23T22:07:00.578Z,101099.30
2018-08-23T22:09:29.711Z,101097.67
2018-08-23T22:11:58.988Z,101093.13
2018-08-23T22:14:28.052Z,101089.29
2018-08-23T22:16:57.121Z,101087.05
2018-08-23T22:19:26.319Z,101084.47
2018-08-23T22:21:55.397Z,101090.81
2018-08-23T22:24:24.506Z,101080.63
2018-08-23T22:26:53.685Z,101083.50
2018-08-23T22:29:22.950Z,101084.97
2018-08-23T22:31:52.147Z,101081.29
2018-08-23T22:34:21.260Z,101079.57
2018-08-23T22:36:50.338Z,101086.80
2018-08-23T22:39:19.468Z,101081.49
2018-08-23T22:41:48.712Z,101074.27
2018-08-23T22:44:17.918Z,101069.07
2018-08-23T22:46:47.428Z,101063.59
2018-08-23T22:49:16.504Z,101066.74
2018-08-23T22:51:45.594Z,101067.72
2018-08-23T22:54:14.768Z,101058.20
2018-08-23T22:56:44.112Z,101055.50
2018-08-23T22:59:13.217Z,101060.98
2018-08-23T23:01:42.515Z,101062.33
2018-08-23T23:04:16.878Z,101048.64
2018-08-23T23:06:45.946Z,101039.61
2018-08-23T23:09:15.152Z,101039.20
2018-08-23T23:11:44.405Z,101039.20
2018-08-23T23:14:13.618Z,101039.12
2018-08-23T23:16:42.752Z,101041.91
2018-08-23T23:19:11.855Z,101040.47
2018-08-23T23:21:41.191Z,101030.63
2018-08-23T23:24:14.467Z,101032.29
2018-08-23T23:26:43.562Z,101031.40
2018-08-23T23:29:12.632Z,101032.47
2018-08-23T23:31:41.739Z,101033.81
2018-08-23T23:34:10.800Z,101028.05
2018-08-23T23:36:39.870Z,101029.69
2018-08-23T23:39:09.304Z,101013.20
2018-08-23T23:41:38.370Z,101014.64
2018-08-23T23:44:07.519Z,101004.72
2018-08-23T23:46:36.612Z,101004.14
2018-08-23T23:49:05.736Z,101005.97
2018-08-23T23:51:34.933Z,101002.30
2018-08-23T23:54:04.020Z,100990.65
2018-08-23T23:56:33.100Z,100988.16
2018-08-23T23:59:02.184Z,100991.84
